Time;durP1;ratioP1;P1;durP2;ratioP2;P2;SDS_P1;SDS_P2;PMS_P1;PMS_P2;Temp;Humidity;BMP_temperature;BMP_pressure;BME280_temperature;BME280_humidity;BME280_pressure;Samples;Min_cycle;Max_cycle;Signal;HPM_P1;HPM_P2
2023/01/02 00:01:23;;;;;;;0.50;0.40;;;13.00;99.90;;;;;;5016803;28;20481;-78
2023/01/02 00:03:50;;;;;;;2.80;2.53;;;13.00;99.90;;;;;;5015557;28;20505;-77
2023/01/02 00:06:17;;;;;;;0.87;0.80;;;13.10;99.90;;;;;;5015719;28;20426;-78
2023/01/02 00:08:44;;;;;;;1.10;1.10;;;13.10;99.90;;;;;;5015324;28;20446;-78
2023/01/02 00:11:11;;;;;;;0.77;0.77;;;13.20;99.90;;;;;;5014210;28;20453;-78
2023/01/02 00:13:38;;;;;;;5.70;1.17;;;13.30;99.90;;;;;;5019255;28;20522;-77
2023/01/02 00:16:07;;;;;;;1.20;0.90;;;13.30;99.90;;;;;;5014373;28;20527;-78
2023/01/02 00:18:34;;;;;;;0.77;0.47;;;13.40;99.90;;;;;;5012745;28;21014;-79
2023/01/02 00:21:03;;;;;;;0.50;0.50;;;13.40;99.90;;;;;;5013866;28;20833;-78
2023/01/02 00:23:31;;;;;;;0.50;0.40;;;13.40;99.90;;;;;;5013937;28;20463;-78
2023/01/02 00:25:58;;;;;;;0.60;0.60;;;13.50;99.90;;;;;;5013203;28;20439;-78
2023/01/02 00:28:25;;;;;;;0.50;0.40;;;13.50;99.90;;;;;;5014464;28;20431;-78
2023/01/02 00:30:51;;;;;;;1.33;1.33;;;13.50;99.90;;;;;;5014275;28;20808;-78
2023/01/02 00:33:20;;;;;;;0.67;0.60;;;13.50;99.90;;;;;;5013555;28;20441;-78
2023/01/02 00:35:47;;;;;;;0.70;0.70;;;13.60;99.90;;;;;;5013217;28;20447;-78
2023/01/02 00:38:13;;;;;;;0.90;0.90;;;13.70;99.90;;;;;;5014101;28;20506;-78
2023/01/02 00:40:41;;;;;;;33.20;3.90;;;13.60;99.90;;;;;;5014120;28;21032;-78
2023/01/02 00:43:08;;;;;;;0.63;0.57;;;13.60;99.90;;;;;;5014245;28;20475;-78
2023/01/02 00:45:35;;;;;;;3.97;2.80;;;13.50;99.90;;;;;;5013018;28;20518;-78
2023/01/02 00:48:01;;;;;;;3.13;0.80;;;13.50;99.90;;;;;;5013592;28;20446;-79
2023/01/02 00:50:30;;;;;;;13.23;1.40;;;13.50;99.90;;;;;;5014389;28;21249;-78
2023/01/02 00:52:56;;;;;;;0.67;0.67;;;13.40;99.90;;;;;;5013782;28;20445;-78
2023/01/02 00:55:23;;;;;;;1.17;1.07;;;13.40;99.90;;;;;;5012712;28;20565;-78
2023/01/02 00:57:50;;;;;;;2.70;2.50;;;13.40;99.90;;;;;;5013715;28;20546;-78
2023/01/02 01:00:17;;;;;;;16.17;1.57;;;13.50;99.90;;;;;;5014011;28;20502;-78
2023/01/02 01:02:44;;;;;;;0.73;0.73;;;13.40;99.90;;;;;;5014148;28;20435;-78
2023/01/02 01:05:11;;;;;;;1.07;0.80;;;13.50;99.90;;;;;;5013361;28;20471;-78
2023/01/02 01:07:39;;;;;;;1.37;0.60;;;13.50;99.90;;;;;;5013937;28;20439;-78
2023/01/02 01:10:07;;;;;;;1.03;1.03;;;13.60;99.90;;;;;;5014808;28;20467;-77
2023/01/02 01:12:34;;;;;;;3.63;0.60;;;13.60;99.90;;;;;;5014517;28;20446;-78
2023/01/02 01:15:01;;;;;;;2.03;1.93;;;13.60;99.90;;;;;;5014191;28;20459;-78
2023/01/02 01:17:28;;;;;;;0.50;0.50;;;13.50;99.90;;;;;;5012592;28;20438;-77
2023/01/02 01:19:55;;;;;;;0.83;0.83;;;13.30;99.90;;;;;;5013138;28;20570;-77
2023/01/02 01:22:22;;;;;;;1.73;1.27;;;13.20;99.90;;;;;;5013069;28;20447;-77
2023/01/02 01:24:50;;;;;;;1.33;1.23;;;13.00;99.90;;;;;;5012030;28;20467;-77
2023/01/02 01:27:17;;;;;;;1.53;1.10;;;12.90;99.90;;;;;;5013335;28;20619;-77
2023/01/02 01:29:44;;;;;;;4.47;1.40;;;12.80;99.90;;;;;;5013581;28;20529;-77
2023/01/02 01:32:10;;;;;;;0.90;0.67;;;12.70;99.90;;;;;;5013270;28;20465;-77
2023/01/02 01:34:37;;;;;;;2.70;1.20;;;12.60;99.90;;;;;;5011964;28;20464;-77
2023/01/02 01:37:04;;;;;;;3.30;1.60;;;12.50;99.90;;;;;;5013436;28;20439;-77
2023/01/02 01:39:31;;;;;;;0.83;0.83;;;12.50;99.90;;;;;;5012886;28;20475;-77
2023/01/02 01:42:00;;;;;;;3.40;1.33;;;12.40;99.90;;;;;;5012997;28;20453;-77
2023/01/02 01:44:45;;;;;;;0.50;0.30;;;12.40;99.90;;;;;;5012011;28;20489;-77
2023/01/02 01:47:22;;;;;;;0.90;0.53;;;12.30;99.90;;;;;;5013012;28;20479;-77
2023/01/02 01:49:54;;;;;;;0.60;0.57;;;12.20;99.90;;;;;;5013696;28;20419;-77
2023/01/02 01:52:25;;;;;;;0.50;0.30;;;12.10;99.90;;;;;;5013004;28;20663;-77
2023/01/02 01:54:57;;;;;;;0.50;0.40;;;12.10;99.90;;;;;;5012751;28;20542;-77
2023/01/02 01:57:30;;;;;;;0.50;0.40;;;12.10;99.90;;;;;;5012985;28;20470;-77
2023/01/02 01:59:58;;;;;;;0.50;0.30;;;12.00;99.90;;;;;;5013101;28;20470;-78
2023/01/02 02:02:28;;;;;;;0.60;0.50;;;12.00;99.90;;;;;;5012471;28;20537;-77
2023/01/02 02:04:56;;;;;;;2.00;1.80;;;12.00;99.90;;;;;;5011994;28;20495;-77
2023/01/02 02:07:23;;;;;;;0.60;0.60;;;12.00;99.90;;;;;;5012913;28;20535;-77
2023/01/02 02:09:55;;;;;;;0.80;0.73;;;11.90;99.90;;;;;;5012890;28;20897;-77
2023/01/02 02:12:22;;;;;;;8.23;1.37;;;11.90;99.90;;;;;;5012287;28;20431;-76
2023/01/02 02:14:50;;;;;;;1.33;0.67;;;12.00;99.90;;;;;;5011655;28;20466;-77
2023/01/02 02:17:23;;;;;;;0.60;0.40;;;11.90;99.90;;;;;;5011504;28;20576;-77
2023/01/02 02:20:17;;;;;;;0.50;0.50;;;11.90;99.90;;;;;;5012850;28;21004;-77
2023/01/02 02:23:09;;;;;;;1.50;1.40;;;11.90;99.90;;;;;;5015097;28;20430;-76
2023/01/02 02:26:01;;;;;;;0.50;0.43;;;11.90;99.90;;;;;;5015360;28;20789;-76
2023/01/02 02:29:14;;;;;;;2.83;1.23;;;11.90;99.90;;;;;;5016523;28;20529;-77
2023/01/02 02:31:51;;;;;;;1.20;1.13;;;11.90;99.90;;;;;;5016978;28;20438;-76
2023/01/02 02:34:23;;;;;;;0.87;0.87;;;11.90;99.90;;;;;;5015416;28;20521;-77
2023/01/02 02:36:57;;;;;;;1.10;1.10;;;12.00;99.90;;;;;;5015867;28;20445;-77
2023/01/02 02:39:35;;;;;;;0.50;0.47;;;12.00;99.90;;;;;;5016426;28;20568;-77
2023/01/02 02:42:11;;;;;;;1.33;1.23;;;11.90;99.90;;;;;;5016270;28;20427;-77
2023/01/02 02:44:47;;;;;;;20.13;1.90;;;12.00;99.90;;;;;;5015019;28;20553;-77
2023/01/02 02:47:26;;;;;;;0.57;0.57;;;11.90;99.90;;;;;;5016238;28;20452;-77
2023/01/02 02:50:01;;;;;;;0.50;0.40;;;11.90;99.90;;;;;;5016143;28;20438;-77
2023/01/02 02:52:32;;;;;;;1.47;0.80;;;11.90;99.90;;;;;;5015966;28;20434;-77
2023/01/02 02:55:05;;;;;;;1.60;0.90;;;11.90;99.90;;;;;;5014913;28;20462;-77
2023/01/02 02:57:33;;;;;;;1.20;0.87;;;11.80;99.90;;;;;;5015968;28;20443;-77
2023/01/02 03:00:00;;;;;;;0.50;0.50;;;11.80;99.90;;;;;;5015023;28;20911;-77
2023/01/02 03:02:28;;;;;;;1.90;0.57;;;11.80;99.90;;;;;;5015734;28;20443;-77
2023/01/02 03:04:59;;;;;;;2.60;1.43;;;11.80;99.90;;;;;;5014410;28;20485;-77
2023/01/02 03:07:32;;;;;;;1.60;1.03;;;11.80;99.90;;;;;;5016120;28;20552;-78
2023/01/02 03:10:08;;;;;;;4.57;2.10;;;11.70;99.90;;;;;;5015336;28;20793;-77
2023/01/02 03:12:43;;;;;;;13.40;1.60;;;11.70;99.90;;;;;;5014803;28;20510;-76
2023/01/02 03:15:16;;;;;;;0.50;0.40;;;11.70;99.90;;;;;;5014247;28;20465;-77
2023/01/02 03:17:57;;;;;;;6.13;1.60;;;11.70;99.90;;;;;;5014563;28;20908;-77
2023/01/02 03:20:28;;;;;;;2.25;1.52;;;11.70;99.90;;;;;;5014852;28;20485;-77
2023/01/02 03:23:00;;;;;;;1.20;1.20;;;11.70;99.90;;;;;;5015011;28;20286;-78
2023/01/02 03:25:28;;;;;;;0.50;0.40;;;11.80;99.90;;;;;;5013770;28;20553;-78
2023/01/02 03:27:58;;;;;;;0.57;0.57;;;11.70;99.90;;;;;;5014889;28;20863;-79
2023/01/02 03:30:25;;;;;;;0.50;0.40;;;11.70;99.90;;;;;;5014908;28;20518;-78
2023/01/02 03:32:59;;;;;;;10.13;2.00;;;11.70;99.90;;;;;;5014529;28;20449;-77
2023/01/02 03:35:32;;;;;;;1.77;1.60;;;11.70;99.90;;;;;;5013714;28;20525;-77
2023/01/02 03:38:02;;;;;;;1.10;1.00;;;11.70;99.90;;;;;;5015274;28;20419;-78
2023/01/02 03:40:34;;;;;;;2.87;1.20;;;11.70;99.90;;;;;;5014450;28;20574;-77
2023/01/02 03:43:05;;;;;;;2.00;1.80;;;11.70;99.90;;;;;;5015142;28;20788;-78
2023/01/02 03:45:36;;;;;;;0.87;0.87;;;11.70;99.90;;;;;;5014751;28;20455;-78
2023/01/02 03:48:13;;;;;;;0.60;0.50;;;11.60;99.90;;;;;;5015093;28;20446;-78
2023/01/02 03:50:46;;;;;;;0.93;0.70;;;11.60;99.90;;;;;;5015545;28;20522;-77
2023/01/02 03:53:14;;;;;;;2.40;1.13;;;11.60;99.90;;;;;;5015498;28;20496;-77
2023/01/02 03:55:49;;;;;;;0.60;0.60;;;11.60;99.90;;;;;;5014510;28;20455;-77
2023/01/02 03:58:24;;;;;;;2.60;1.53;;;11.50;99.90;;;;;;5015201;28;20488;-77
2023/01/02 04:01:02;;;;;;;1.80;1.23;;;11.50;99.90;;;;;;5014615;28;20467;-77
2023/01/02 04:03:36;;;;;;;1.30;0.80;;;11.50;99.90;;;;;;5014996;28;20478;-77
2023/01/02 04:06:08;;;;;;;2.40;1.60;;;11.50;99.90;;;;;;5066634;22;20489;-79
2023/01/02 04:08:39;;;;;;;1.87;1.10;;;11.50;99.90;;;;;;5012331;28;20441;-79
2023/01/02 04:11:08;;;;;;;1.70;1.60;;;11.50;99.90;;;;;;5013329;28;20449;-81
2023/01/02 04:13:40;;;;;;;0.97;0.87;;;11.50;99.90;;;;;;5016069;28;20447;-78
2023/01/02 04:16:10;;;;;;;7.40;1.70;;;11.50;99.90;;;;;;5015253;28;20466;-80
2023/01/02 04:18:42;;;;;;;1.00;1.00;;;11.50;99.90;;;;;;5015211;28;20525;-79
2023/01/02 04:21:19;;;;;;;0.60;0.60;;;11.50;99.90;;;;;;5015652;28;20463;-80
2023/01/02 04:23:50;;;;;;;0.70;0.70;;;11.50;99.90;;;;;;5015522;28;20427;-80
2023/01/02 04:26:21;;;;;;;2.00;0.60;;;11.50;99.90;;;;;;5015928;28;20219;-79
2023/01/02 04:28:48;;;;;;;1.03;0.93;;;11.50;99.90;;;;;;5015613;28;20933;-79
2023/01/02 04:31:20;;;;;;;2.40;0.90;;;11.50;99.90;;;;;;5016177;28;20435;-83
2023/01/02 04:33:52;;;;;;;0.63;0.63;;;11.50;99.90;;;;;;5014905;28;20419;-80
2023/01/02 04:36:19;;;;;;;0.73;0.70;;;11.50;99.90;;;;;;5015623;28;20459;-79
2023/01/02 04:38:46;;;;;;;0.70;0.60;;;11.50;99.90;;;;;;5015921;28;20527;-81
2023/01/02 04:41:17;;;;;;;0.77;0.77;;;11.50;99.90;;;;;;5015159;28;20510;-79
2023/01/02 04:43:43;;;;;;;3.47;3.17;;;11.50;99.90;;;;;;5015604;28;20522;-84
2023/01/02 04:46:10;;;;;;;1.37;0.87;;;11.50;99.90;;;;;;5014384;28;20830;-83
2023/01/02 04:48:37;;;;;;;0.80;0.80;;;11.50;99.90;;;;;;5015459;28;20439;-80
2023/01/02 04:51:06;;;;;;;3.43;1.30;;;11.60;99.90;;;;;;5015465;28;20522;-77
2023/01/02 04:53:32;;;;;;;0.50;0.40;;;11.60;99.90;;;;;;5015189;28;20435;-79
2023/01/02 04:55:59;;;;;;;8.90;1.70;;;11.60;99.90;;;;;;5014352;28;20539;-81
2023/01/02 04:58:26;;;;;;;0.87;0.70;;;11.60;99.90;;;;;;5014815;28;20481;-79
2023/01/02 05:00:53;;;;;;;1.43;1.33;;;11.60;99.90;;;;;;5015031;28;20474;-83
2023/01/02 05:03:20;;;;;;;1.47;1.07;;;11.60;99.90;;;;;;5014937;28;20447;-80
2023/01/02 05:05:47;;;;;;;1.57;0.97;;;11.70;99.90;;;;;;5029439;28;20607;-81
2023/01/02 05:08:15;;;;;;;0.53;0.40;;;11.70;99.90;;;;;;5032914;28;20443;-83
2023/01/02 05:10:42;;;;;;;0.60;0.50;;;11.70;99.90;;;;;;5033606;28;20599;-84
2023/01/02 05:13:09;;;;;;;5.80;1.43;;;11.60;99.90;;;;;;5033734;28;20454;-79
2023/01/02 05:15:36;;;;;;;4.87;2.00;;;11.60;99.90;;;;;;5033234;28;20522;-84
2023/01/02 05:18:03;;;;;;;1.07;0.77;;;11.70;99.90;;;;;;5031430;28;20435;-81
2023/01/02 05:20:30;;;;;;;1.03;0.90;;;11.70;99.90;;;;;;5033546;28;20502;-84
2023/01/02 05:25:42;;;;;;;3.57;1.40;;;11.70;99.90;;;;;;5033544;28;20442;-82
2023/01/02 05:28:09;;;;;;;0.90;0.90;;;11.80;99.90;;;;;;5034335;28;20477;-86
2023/01/02 05:30:38;;;;;;;4.33;3.33;;;11.80;99.90;;;;;;5034111;28;20203;-85
2023/01/02 05:33:05;;;;;;;5.10;1.53;;;11.80;99.90;;;;;;5034429;28;20470;-84
2023/01/02 05:35:33;;;;;;;0.60;0.43;;;11.90;99.90;;;;;;5032875;28;20489;-83
2023/01/02 05:38:00;;;;;;;2.93;2.63;;;11.80;99.90;;;;;;5035467;28;20435;-86
2023/01/02 05:40:27;;;;;;;8.33;4.43;;;11.90;99.90;;;;;;5022650;28;20570;-81
2023/01/02 05:42:55;;;;;;;0.77;0.77;;;11.90;99.90;;;;;;5015396;28;20529;-81
2023/01/02 05:45:22;;;;;;;0.50;0.47;;;11.90;99.90;;;;;;5014389;28;20545;-81
2023/01/02 05:47:49;;;;;;;1.17;1.07;;;11.90;99.90;;;;;;5014991;28;20192;-82
2023/01/02 05:50:16;;;;;;;2.83;0.87;;;11.90;99.90;;;;;;5014668;28;20534;-81
2023/01/02 05:52:43;;;;;;;0.60;0.60;;;11.90;99.90;;;;;;5015499;28;20542;-83
2023/01/02 05:55:09;;;;;;;6.43;4.20;;;12.00;99.90;;;;;;5013791;28;20449;-84
2023/01/02 05:57:36;;;;;;;0.83;0.77;;;11.90;99.90;;;;;;5020768;28;20437;-81
2023/01/02 06:00:05;;;;;;;5.40;3.40;;;11.90;99.90;;;;;;5033304;28;20474;-81
2023/01/02 06:02:33;;;;;;;0.83;0.70;;;11.90;99.90;;;;;;5032408;28;20506;-84
2023/01/02 06:05:00;;;;;;;12.27;2.63;;;11.90;99.90;;;;;;5030537;28;20434;-83
2023/01/02 06:07:27;;;;;;;1.83;1.35;;;11.90;99.90;;;;;;5025296;28;20478;-81
2023/01/02 06:09:53;;;;;;;1.42;1.00;;;11.90;99.90;;;;;;5018199;28;20278;-80
2023/01/02 06:12:20;;;;;;;0.90;0.70;;;11.90;99.90;;;;;;5017989;28;20274;-80
2023/01/02 06:14:47;;;;;;;0.50;0.40;;;11.90;99.90;;;;;;5017163;28;20538;-80
2023/01/02 06:17:15;;;;;;;1.20;1.10;;;11.90;99.90;;;;;;5015952;28;20502;-79
2023/01/02 06:19:42;;;;;;;7.00;1.23;;;11.90;99.90;;;;;;5017541;28;20518;-81
2023/01/02 06:22:09;;;;;;;2.15;1.02;;;11.90;99.90;;;;;;5017359;28;20538;-83
2023/01/02 06:24:36;;;;;;;1.45;0.85;;;11.90;99.90;;;;;;5017226;28;20288;-82
2023/01/02 06:27:02;;;;;;;4.80;1.70;;;11.90;99.90;;;;;;5017526;28;20226;-82
2023/01/02 06:29:29;;;;;;;66.53;2.23;;;11.90;99.90;;;;;;5017517;28;20450;-82
2023/01/02 06:31:56;;;;;;;0.80;0.75;;;11.90;99.90;;;;;;5017359;28;20526;-82
2023/01/02 06:34:24;;;;;;;5.40;1.02;;;11.90;99.90;;;;;;5017357;28;20200;-81
2023/01/02 06:36:51;;;;;;;1.10;1.00;;;11.90;99.90;;;;;;5017636;28;20244;-80
2023/01/02 06:39:18;;;;;;;1.50;0.93;;;11.90;99.90;;;;;;5017308;28;20529;-83
2023/01/02 06:41:45;;;;;;;0.60;0.50;;;11.80;99.90;;;;;;5017230;28;20574;-82
2023/01/02 06:44:13;;;;;;;0.70;0.60;;;11.90;99.90;;;;;;5016739;28;20250;-79
2023/01/02 06:46:40;;;;;;;0.77;0.60;;;11.90;99.90;;;;;;5017193;28;20462;-81
2023/01/02 06:49:06;;;;;;;6.85;2.10;;;11.90;99.90;;;;;;5016929;28;20944;-83
2023/01/02 06:51:35;;;;;;;1.95;1.50;;;11.80;99.90;;;;;;5017260;28;20199;-84
2023/01/02 06:54:01;;;;;;;6.70;1.10;;;11.80;99.90;;;;;;5016959;28;20223;-82
2023/01/02 06:56:28;;;;;;;1.40;1.30;;;11.90;99.90;;;;;;5016792;28;20339;-82
2023/01/02 06:58:55;;;;;;;0.60;0.60;;;11.90;99.90;;;;;;5017615;28;20202;-83
2023/01/02 07:01:23;;;;;;;1.17;0.75;;;11.90;99.90;;;;;;5017149;28;20542;-83
2023/01/02 07:03:50;;;;;;;3.13;1.20;;;11.80;99.90;;;;;;5016743;28;20231;-85
2023/01/02 07:06:18;;;;;;;0.60;0.60;;;11.80;99.90;;;;;;5016286;28;20228;-82
2023/01/02 07:08:47;;;;;;;1.50;0.70;;;11.80;99.90;;;;;;5016462;28;20258;-81
2023/01/02 07:11:15;;;;;;;0.70;0.70;;;11.80;99.90;;;;;;5017313;28;20449;-81
2023/01/02 07:13:43;;;;;;;7.88;1.58;;;11.80;99.90;;;;;;5016267;28;20192;-82
2023/01/02 07:16:13;;;;;;;3.17;0.90;;;11.80;99.90;;;;;;5015668;28;20303;-83
2023/01/02 07:18:40;;;;;;;1.00;0.95;;;11.80;99.90;;;;;;5015381;28;20443;-82
2023/01/02 07:21:08;;;;;;;1.93;0.60;;;11.80;99.90;;;;;;5017045;28;20214;-79
2023/01/02 07:23:35;;;;;;;0.70;0.70;;;11.80;99.90;;;;;;5016580;28;20449;-83
2023/01/02 07:26:05;;;;;;;3.25;1.95;;;11.70;99.90;;;;;;5015633;28;20459;-85
2023/01/02 07:28:33;;;;;;;1.13;1.07;;;11.80;99.90;;;;;;5016906;28;20619;-81
2023/01/02 07:31:03;;;;;;;1.63;1.53;;;11.80;99.90;;;;;;5016547;28;20483;-81
2023/01/02 07:33:30;;;;;;;2.05;0.98;;;11.80;99.90;;;;;;5016352;28;20856;-82
2023/01/02 07:35:58;;;;;;;1.20;0.93;;;11.80;99.90;;;;;;5016076;28;20215;-81
2023/01/02 07:38:25;;;;;;;1.13;1.02;;;11.80;99.90;;;;;;5016806;28;20208;-81
2023/01/02 07:40:51;;;;;;;1.97;1.43;;;11.80;99.90;;;;;;5016445;28;20432;-80
2023/01/02 07:43:20;;;;;;;0.50;0.40;;;11.80;99.90;;;;;;5015604;28;20798;-81
2023/01/02 07:45:47;;;;;;;0.80;0.70;;;11.80;99.90;;;;;;5015532;28;20223;-82
2023/01/02 07:48:14;;;;;;;1.23;1.13;;;11.80;99.90;;;;;;5015731;28;20481;-81
2023/01/02 07:50:40;;;;;;;1.57;1.47;;;11.80;99.90;;;;;;5016005;28;20435;-82
2023/01/02 07:53:07;;;;;;;0.90;0.90;;;11.80;99.90;;;;;;5016505;28;20515;-81
2023/01/02 07:55:34;;;;;;;17.70;1.90;;;11.70;99.90;;;;;;5015573;28;20491;-80
2023/01/02 07:58:01;;;;;;;1.88;0.82;;;11.70;99.90;;;;;;5015758;28;20451;-82
2023/01/02 08:00:29;;;;;;;2.10;1.63;;;11.70;99.90;;;;;;5017704;28;20322;-81
2023/01/02 08:02:56;;;;;;;0.93;0.93;;;11.70;99.90;;;;;;5018498;28;20530;-82
2023/01/02 08:05:23;;;;;;;2.80;1.33;;;11.70;99.90;;;;;;5015098;28;20287;-79
2023/01/02 08:07:50;;;;;;;1.00;0.70;;;11.70;99.90;;;;;;5015803;28;20897;-82
2023/01/02 08:10:17;;;;;;;0.95;0.85;;;11.70;99.90;;;;;;5015652;28;20510;-81
2023/01/02 08:12:43;;;;;;;0.60;0.50;;;11.60;99.90;;;;;;5015981;28;20211;-80
2023/01/02 08:15:11;;;;;;;4.07;1.77;;;11.60;99.90;;;;;;5014852;28;20526;-84
2023/01/02 08:17:40;;;;;;;2.55;1.27;;;11.60;99.90;;;;;;5014961;28;20447;-81
2023/01/02 08:20:09;;;;;;;0.60;0.50;;;11.50;99.90;;;;;;5014453;28;20227;-80
2023/01/02 08:22:35;;;;;;;2.15;1.45;;;11.50;99.90;;;;;;5015633;28;20585;-82
2023/01/02 08:25:03;;;;;;;1.30;1.17;;;11.50;99.90;;;;;;5015121;28;20898;-79
2023/01/02 08:27:29;;;;;;;1.07;1.07;;;11.50;99.90;;;;;;5016200;28;20469;-80
2023/01/02 08:29:56;;;;;;;1.53;0.87;;;11.50;99.90;;;;;;5015529;28;20451;-80
2023/01/02 08:32:23;;;;;;;3.42;1.38;;;11.50;99.90;;;;;;5015825;28;20523;-82
2023/01/02 08:34:52;;;;;;;8.40;2.13;;;11.40;99.90;;;;;;5015427;28;20196;-81
2023/01/02 08:37:19;;;;;;;7.35;1.65;;;11.50;99.90;;;;;;5015207;28;20306;-81
2023/01/02 08:39:46;;;;;;;1.00;0.83;;;11.40;99.90;;;;;;5015475;28;20212;-83
2023/01/02 08:42:13;;;;;;;0.60;0.60;;;11.40;99.90;;;;;;5015423;28;20474;-80
2023/01/02 08:44:39;;;;;;;2.90;2.60;;;11.40;99.90;;;;;;5014615;28;20537;-82
2023/01/02 08:47:06;;;;;;;2.80;1.03;;;11.40;99.90;;;;;;5015936;28;20495;-83
2023/01/02 08:49:33;;;;;;;1.17;1.10;;;11.30;99.90;;;;;;5015274;28;20451;-82
2023/01/02 08:52:01;;;;;;;1.43;1.33;;;11.30;99.90;;;;;;5015297;28;20506;-81
2023/01/02 08:54:28;;;;;;;1.03;1.03;;;11.30;99.90;;;;;;5014818;28;20527;-82
2023/01/02 08:56:55;;;;;;;1.77;1.33;;;11.30;99.90;;;;;;5020724;28;20917;-83
2023/01/02 08:59:24;;;;;;;0.50;0.50;;;11.20;99.90;;;;;;5022500;28;20449;-82
2023/01/02 09:01:51;;;;;;;0.52;0.47;;;11.20;99.90;;;;;;5021792;28;20218;-80
2023/01/02 09:04:18;;;;;;;0.50;0.50;;;11.20;99.90;;;;;;5025330;28;20264;-81
2023/01/02 09:06:46;;;;;;;0.50;0.30;;;11.10;99.90;;;;;;5019564;28;20247;-84
2023/01/02 09:09:16;;;;;;;0.50;0.30;;;11.20;99.90;;;;;;5019822;28;20278;-82
2023/01/02 09:11:45;;;;;;;0.50;0.40;;;11.20;99.90;;;;;;5021110;28;20220;-81
2023/01/02 09:14:12;;;;;;;0.77;0.63;;;11.10;99.90;;;;;;5025722;28;20446;-78
2023/01/02 09:16:39;;;;;;;0.50;0.40;;;11.00;99.90;;;;;;5031721;28;20279;-83
2023/01/02 09:19:06;;;;;;;0.50;0.38;;;11.00;99.90;;;;;;5030995;28;20223;-79
2023/01/02 09:21:33;;;;;;;0.50;0.40;;;10.90;99.90;;;;;;5033581;28;20212;-80
2023/01/02 09:24:00;;;;;;;0.50;0.40;;;10.90;99.90;;;;;;5032469;28;20462;-84
2023/01/02 09:26:29;;;;;;;0.50;0.35;;;10.80;99.90;;;;;;5034408;28;20204;-82
2023/01/02 09:28:56;;;;;;;0.50;0.40;;;10.80;99.90;;;;;;5033363;28;20230;-84
2023/01/02 09:31:23;;;;;;;0.50;0.30;;;10.80;99.90;;;;;;5027166;28;20446;-80
2023/01/02 09:33:52;;;;;;;0.50;0.40;;;10.80;99.90;;;;;;5019511;28;20632;-80
2023/01/02 09:36:20;;;;;;;0.50;0.40;;;10.80;99.90;;;;;;5019119;28;20561;-80
2023/01/02 09:38:51;;;;;;;0.50;0.40;;;10.70;99.90;;;;;;5019156;28;20439;-80
2023/01/02 09:41:28;;;;;;;0.50;0.40;;;10.70;99.90;;;;;;5018553;28;20200;-83
2023/01/02 09:43:59;;;;;;;0.50;0.40;;;10.70;99.90;;;;;;5018405;28;20275;-81
2023/01/02 09:46:31;;;;;;;0.50;0.40;;;10.70;99.90;;;;;;5019256;28;20310;-82
2023/01/02 09:48:59;;;;;;;0.50;0.40;;;10.70;99.90;;;;;;5022765;28;20443;-85
2023/01/02 09:51:27;;;;;;;0.50;0.40;;;10.70;99.90;;;;;;5019542;28;20441;-81
2023/01/02 09:53:54;;;;;;;0.50;0.50;;;10.70;99.90;;;;;;5018660;28;20191;-82
2023/01/02 09:56:27;;;;;;;1.17;1.00;;;10.70;99.90;;;;;;5019638;28;20749;-80
2023/01/02 09:59:02;;;;;;;0.50;0.40;;;10.70;99.90;;;;;;5018827;28;20196;-82
2023/01/02 10:01:35;;;;;;;0.60;0.57;;;10.60;99.90;;;;;;5019943;28;20291;-82
2023/01/02 10:04:12;;;;;;;0.63;0.55;;;10.60;99.90;;;;;;5019936;28;20259;-80
2023/01/02 10:06:43;;;;;;;0.50;0.40;;;10.50;99.90;;;;;;5022382;28;20227;-83
2023/01/02 10:09:16;;;;;;;0.77;0.70;;;10.50;99.90;;;;;;5022530;28;20298;-81
2023/01/02 10:11:53;;;;;;;0.50;0.40;;;10.50;99.90;;;;;;5018609;28;20228;-81
2023/01/02 10:14:29;;;;;;;0.50;0.40;;;10.40;99.90;;;;;;5017819;28;20661;-81
2023/01/02 10:16:59;;;;;;;0.50;0.50;;;10.40;99.90;;;;;;5016946;28;20311;-84
2023/01/02 10:19:33;;;;;;;1.23;1.13;;;10.30;99.90;;;;;;5018840;28;20563;-81
2023/01/02 10:22:03;;;;;;;1.73;0.93;;;10.30;99.90;;;;;;5023122;28;20279;-82
2023/01/02 10:24:38;;;;;;;0.50;0.50;;;10.30;99.90;;;;;;5017764;28;20200;-81
2023/01/02 10:27:12;;;;;;;0.50;0.40;;;10.30;99.90;;;;;;5018666;28;20295;-83
2023/01/02 10:29:45;;;;;;;0.50;0.40;;;10.30;99.90;;;;;;5018775;28;21047;-84
2023/01/02 10:32:16;;;;;;;0.50;0.40;;;10.30;99.90;;;;;;5018684;28;20501;-82
2023/01/02 10:34:50;;;;;;;0.50;0.40;;;10.30;99.90;;;;;;5018316;28;20203;-80
2023/01/02 10:37:18;;;;;;;1.23;1.23;;;10.40;99.90;;;;;;5018588;28;20472;-82
2023/01/02 10:39:46;;;;;;;0.93;0.93;;;10.40;99.90;;;;;;5017904;28;20442;-81
2023/01/02 10:42:15;;;;;;;0.60;0.60;;;10.40;99.90;;;;;;5017783;28;20581;-80
2023/01/02 10:44:45;;;;;;;0.50;0.40;;;10.40;99.90;;;;;;5017303;28;20479;-83
2023/01/02 10:47:19;;;;;;;0.70;0.50;;;10.30;99.90;;;;;;5018008;28;20479;-80
2023/01/02 10:49:46;;;;;;;0.50;0.40;;;10.40;99.90;;;;;;5017948;28;20186;-81
2023/01/02 10:52:19;;;;;;;0.60;0.40;;;10.40;99.90;;;;;;5017765;28;20283;-80
2023/01/02 10:54:52;;;;;;;4.40;1.30;;;10.40;99.90;;;;;;5016715;28;20292;-81
2023/01/02 10:57:24;;;;;;;1.35;0.88;;;10.40;99.90;;;;;;5018330;28;21024;-81
2023/01/02 11:00:01;;;;;;;1.00;0.70;;;10.40;99.90;;;;;;5017437;28;20536;-81
2023/01/02 11:02:31;;;;;;;1.37;1.17;;;10.40;99.90;;;;;;5018323;28;20474;-82
2023/01/02 11:05:01;;;;;;;1.07;0.57;;;10.40;99.90;;;;;;5017862;28;20502;-80
2023/01/02 11:07:32;;;;;;;1.95;1.85;;;10.50;99.90;;;;;;5018625;28;20812;-80
2023/01/02 11:10:00;;;;;;;2.10;1.90;;;10.50;99.90;;;;;;5017495;28;20271;-84
2023/01/02 11:12:27;;;;;;;1.98;1.88;;;10.40;99.90;;;;;;5017777;28;20853;-80
2023/01/02 11:15:10;;;;;;;0.85;0.85;;;10.40;99.90;;;;;;5016899;28;20267;-81
2023/01/02 11:17:42;;;;;;;1.83;1.73;;;10.40;99.90;;;;;;5016117;28;20184;-80
2023/01/02 11:20:23;;;;;;;2.13;1.07;;;10.40;99.90;;;;;;5017679;28;20787;-81
2023/01/02 11:22:50;;;;;;;1.73;1.13;;;10.30;99.90;;;;;;5017468;28;21070;-80
2023/01/02 11:25:21;;;;;;;3.80;2.35;;;10.30;99.90;;;;;;5016134;28;20507;-85
2023/01/02 11:27:48;;;;;;;3.05;2.00;;;10.30;99.90;;;;;;5017370;28;20280;-81
2023/01/02 11:30:34;;;;;;;0.60;0.60;;;10.30;99.90;;;;;;5017303;28;20772;-80
2023/01/02 11:33:06;;;;;;;3.33;2.35;;;10.30;99.90;;;;;;5017434;28;20430;-82
2023/01/02 11:35:38;;;;;;;0.50;0.40;;;10.30;99.90;;;;;;5015597;28;20223;-81
2023/01/02 11:38:12;;;;;;;3.08;1.65;;;10.30;99.90;;;;;;5017164;28;20271;-76
2023/01/02 11:40:50;;;;;;;3.35;2.40;;;10.30;99.90;;;;;;5017148;28;20216;-79
2023/01/02 11:46:14;;;;;;;0.70;0.50;;;10.30;99.90;;;;;;5016095;28;20266;-81
2023/01/02 11:48:41;;;;;;;1.17;1.13;;;10.30;99.90;;;;;;5016159;28;20429;-80
2023/01/02 11:51:15;;;;;;;0.98;0.88;;;10.30;99.90;;;;;;5016662;28;20221;-76
2023/01/02 11:53:46;;;;;;;3.50;2.58;;;10.30;99.90;;;;;;5016594;28;20843;-78
2023/01/02 11:56:17;;;;;;;1.67;1.57;;;10.30;99.90;;;;;;5015167;28;20218;-80
2023/01/02 11:58:52;;;;;;;2.70;1.67;;;10.40;99.90;;;;;;5017410;28;20486;-79
2023/01/02 12:01:29;;;;;;;1.10;1.10;;;10.50;99.90;;;;;;5016890;28;20275;-81
2023/01/02 12:03:56;;;;;;;6.23;2.77;;;10.70;99.90;;;;;;5017237;28;20849;-80
2023/01/02 12:06:30;;;;;;;2.93;2.83;;;10.70;99.90;;;;;;5016553;28;20463;-82
2023/01/02 12:09:06;;;;;;;0.50;0.40;;;10.80;99.90;;;;;;5016849;28;20518;-80
2023/01/02 12:11:49;;;;;;;3.30;2.37;;;10.80;99.90;;;;;;5016778;28;20231;-79
2023/01/02 12:14:18;;;;;;;0.60;0.60;;;10.80;99.90;;;;;;5015596;28;20471;-80
2023/01/02 12:16:52;;;;;;;1.03;0.80;;;10.80;99.90;;;;;;5015602;28;20505;-80
2023/01/02 12:19:46;;;;;;;0.50;0.40;;;10.80;99.90;;;;;;5015993;28;20522;-80
2023/01/02 12:22:37;;;;;;;0.50;0.40;;;10.70;99.90;;;;;;5016711;28;20478;-78
2023/01/02 12:25:41;;;;;;;0.70;0.60;;;10.80;99.90;;;;;;5014321;28;20435;-78
2023/01/02 12:28:40;;;;;;;0.50;0.40;;;10.90;99.90;;;;;;5016049;28;20849;-80
2023/01/02 12:31:26;;;;;;;1.43;1.00;;;10.90;99.90;;;;;;5016622;28;20621;-79
2023/01/02 12:34:06;;;;;;;3.40;1.17;;;11.00;99.90;;;;;;5014922;28;20502;-80
2023/01/02 12:36:52;;;;;;;0.60;0.60;;;11.00;99.90;;;;;;5015644;28;20459;-80
2023/01/02 12:39:48;;;;;;;2.30;1.33;;;11.00;99.90;;;;;;5015566;28;20184;-83
2023/01/02 12:42:28;;;;;;;1.53;0.60;;;10.90;99.90;;;;;;5015353;28;20481;-80
2023/01/02 12:44:57;;;;;;;1.03;0.83;;;10.90;99.90;;;;;;5013990;28;20451;-79
2023/01/02 12:47:33;;;;;;;2.90;2.80;;;10.80;99.90;;;;;;5015456;28;20467;-79
2023/01/02 12:50:39;;;;;;;2.67;2.25;;;10.80;99.90;;;;;;5015092;28;20431;-83
2023/01/02 12:53:21;;;;;;;0.73;0.73;;;10.80;99.90;;;;;;5015342;28;20605;-82
2023/01/02 12:55:55;;;;;;;0.50;0.50;;;10.80;99.90;;;;;;5014468;28;20467;-81
2023/01/02 12:58:39;;;;;;;0.50;0.40;;;10.80;99.90;;;;;;5014829;28;20553;-80
2023/01/02 13:01:16;;;;;;;0.50;0.40;;;10.80;99.90;;;;;;5015273;28;20199;-82
2023/01/02 13:03:58;;;;;;;1.43;1.33;;;10.80;99.90;;;;;;5016063;28;20203;-82
2023/01/02 13:06:34;;;;;;;0.60;0.50;;;10.80;99.90;;;;;;5016117;28;20510;-82
2023/01/02 13:09:06;;;;;;;0.50;0.40;;;10.80;99.90;;;;;;5016813;28;20196;-80